sensor_id;sensor_type;location;lat;lon;timestamp;pressure;altitude;pressure_sealevel;temperature;humidity
55347;BME280;41218;55.700;38.270;2023-11-19T00:03:02;100791.72;;;-10.35;68.83
55347;BME280;41218;55.700;38.270;2023-11-19T00:08:03;100780.19;;;-10.42;69.43
55347;BME280;41218;55.700;38.270;2023-11-19T00:13:06;100791.50;;;-10.40;68.86
55347;BME280;41218;55.700;38.270;2023-11-19T00:18:07;100785.97;;;-10.45;68.66
55347;BME280;41218;55.700;38.270;2023-11-19T00:23:08;100782.06;;;-10.50;68.99
55347;BME280;41218;55.700;38.270;2023-11-19T00:28:08;100780.84;;;-10.47;68.83
55347;BME280;41218;55.700;38.270;2023-11-19T00:33:10;100782.06;;;-10.50;69.08
55347;BME280;41218;55.700;38.270;2023-11-19T00:38:11;100773.41;;;-10.58;68.94
55347;BME280;41218;55.700;38.270;2023-11-19T00:43:11;100767.25;;;-10.59;68.94
55347;BME280;41218;55.700;38.270;2023-11-19T00:48:12;100758.63;;;-10.68;68.88
55347;BME280;41218;55.700;38.270;2023-11-19T00:53:13;100764.78;;;-10.67;69.17
55347;BME280;41218;55.700;38.270;2023-11-19T00:58:14;100771.56;;;-10.64;68.76
55347;BME280;41218;55.700;38.270;2023-11-19T01:03:14;100765.59;;;-10.66;68.87
55347;BME280;41218;55.700;38.270;2023-11-19T01:08:15;100745.47;;;-10.76;68.98
55347;BME280;41218;55.700;38.270;2023-11-19T01:13:16;100738.28;;;-10.75;68.88
55347;BME280;41218;55.700;38.270;2023-11-19T01:18:16;100737.47;;;-10.82;68.94
55347;BME280;41218;55.700;38.270;2023-11-19T01:23:17;100733.34;;;-10.85;68.71
55347;BME280;41218;55.700;38.270;2023-11-19T01:28:18;100724.31;;;-10.84;68.89
55347;BME280;41218;55.700;38.270;2023-11-19T01:33:19;100727.19;;;-10.85;68.95
55347;BME280;41218;55.700;38.270;2023-11-19T01:38:19;100704.16;;;-10.93;68.52
55347;BME280;41218;55.700;38.270;2023-11-19T01:43:33;100718.97;;;-10.91;68.83
55347;BME280;41218;55.700;38.270;2023-11-19T01:48:38;100720.00;;;-10.98;68.59
55347;BME280;41218;55.700;38.270;2023-11-19T01:53:41;100728.00;;;-10.98;68.67
55347;BME280;41218;55.700;38.270;2023-11-19T01:58:45;100712.19;;;-11.06;68.81
55347;BME280;41218;55.700;38.270;2023-11-19T02:03:46;100715.47;;;-11.04;68.46
55347;BME280;41218;55.700;38.270;2023-11-19T02:08:47;100725.13;;;-11.03;68.70
55347;BME280;41218;55.700;38.270;2023-11-19T02:13:48;100712.59;;;-11.10;68.79
55347;BME280;41218;55.700;38.270;2023-11-19T02:18:48;100707.44;;;-11.11;68.67
55347;BME280;41218;55.700;38.270;2023-11-19T02:23:49;100704.78;;;-11.18;68.42
55347;BME280;41218;55.700;38.270;2023-11-19T02:28:50;100704.56;;;-11.16;68.76
55347;BME280;41218;55.700;38.270;2023-11-19T02:33:50;100702.91;;;-11.17;68.45
55347;BME280;41218;55.700;38.270;2023-11-19T02:38:52;100687.50;;;-11.29;68.48
55347;BME280;41218;55.700;38.270;2023-11-19T02:43:52;100705.38;;;-11.22;68.56
55347;BME280;41218;55.700;38.270;2023-11-19T02:48:53;100679.50;;;-11.35;68.54
55347;BME280;41218;55.700;38.270;2023-11-19T02:53:54;100709.28;;;-11.25;68.76
55347;BME280;41218;55.700;38.270;2023-11-19T02:58:55;100710.50;;;-11.27;68.39
55347;BME280;41218;55.700;38.270;2023-11-19T03:03:57;100708.25;;;-11.24;68.37
55347;BME280;41218;55.700;38.270;2023-11-19T03:08:58;100698.38;;;-11.30;68.71
55347;BME280;41218;55.700;38.270;2023-11-19T03:13:59;100702.69;;;-11.36;68.21
55347;BME280;41218;55.700;38.270;2023-11-19T03:18:59;100702.50;;;-11.34;68.76
55347;BME280;41218;55.700;38.270;2023-11-19T03:24:00;100708.44;;;-11.32;68.47
55347;BME280;41218;55.700;38.270;2023-11-19T03:29:01;100714.81;;;-11.33;68.40
55347;BME280;41218;55.700;38.270;2023-11-19T03:34:02;100696.72;;;-11.44;68.72
55347;BME280;41218;55.700;38.270;2023-11-19T03:39:03;100691.19;;;-11.43;68.17
55347;BME280;41218;55.700;38.270;2023-11-19T03:44:04;100690.16;;;-11.42;68.23
55347;BME280;41218;55.700;38.270;2023-11-19T03:49:04;100694.06;;;-11.38;68.52
55347;BME280;41218;55.700;38.270;2023-11-19T03:54:07;100685.25;;;-11.38;68.43
55347;BME280;41218;55.700;38.270;2023-11-19T03:59:07;100675.56;;;-11.46;68.33
55347;BME280;41218;55.700;38.270;2023-11-19T04:04:10;100669.63;;;-11.48;68.45
55347;BME280;41218;55.700;38.270;2023-11-19T04:09:11;100663.66;;;-11.50;68.41
55347;BME280;41218;55.700;38.270;2023-11-19T04:14:11;100661.84;;;-11.43;68.25
55347;BME280;41218;55.700;38.270;2023-11-19T04:19:13;100661.63;;;-11.41;68.25
55347;BME280;41218;55.700;38.270;2023-11-19T04:24:14;100654.22;;;-11.46;68.59
55347;BME280;41218;55.700;38.270;2023-11-19T04:29:16;100662.84;;;-11.44;68.35
55347;BME280;41218;55.700;38.270;2023-11-19T04:34:19;100655.47;;;-11.49;68.31
55347;BME280;41218;55.700;38.270;2023-11-19T04:39:20;100649.94;;;-11.47;68.49
55347;BME280;41218;55.700;38.270;2023-11-19T04:44:21;100643.56;;;-11.46;68.36
55347;BME280;41218;55.700;38.270;2023-11-19T04:49:22;100638.88;;;-11.37;68.43
55347;BME280;41218;55.700;38.270;2023-11-19T04:54:23;100643.56;;;-11.26;68.46
55347;BME280;41218;55.700;38.270;2023-11-19T04:59:24;100646.47;;;-11.21;67.92
55347;BME280;41218;55.700;38.270;2023-11-19T05:04:25;100659.00;;;-11.15;68.53
55347;BME280;41218;55.700;38.270;2023-11-19T05:09:26;100645.41;;;-11.13;68.15
55347;BME280;41218;55.700;38.270;2023-11-19T05:14:27;100654.25;;;-11.06;68.21
55347;BME280;41218;55.700;38.270;2023-11-19T05:19:28;100654.88;;;-10.97;68.18
55347;BME280;41218;55.700;38.270;2023-11-19T05:24:28;100663.09;;;-10.85;68.18
55347;BME280;41218;55.700;38.270;2023-11-19T05:29:29;100663.69;;;-10.77;68.58
55347;BME280;41218;55.700;38.270;2023-11-19T05:34:30;100663.69;;;-10.63;68.69
55347;BME280;41218;55.700;38.270;2023-11-19T05:39:31;100659.75;;;-10.54;68.83
55347;BME280;41218;55.700;38.270;2023-11-19T05:44:31;100680.09;;;-10.33;68.94
55347;BME280;41218;55.700;38.270;2023-11-19T05:49:32;100672.00;;;-10.27;68.76
55347;BME280;41218;55.700;38.270;2023-11-19T05:54:33;100664.97;;;-10.14;68.79
55347;BME280;41218;55.700;38.270;2023-11-19T05:59:37;100666.56;;;-10.00;69.35
55347;BME280;41218;55.700;38.270;2023-11-19T06:04:38;100666.91;;;-9.83;69.10
55347;BME280;41218;55.700;38.270;2023-11-19T06:09:38;100676.13;;;-9.72;69.35
55347;BME280;41218;55.700;38.270;2023-11-19T06:14:40;100667.03;;;-9.71;69.66
55347;BME280;41218;55.700;38.270;2023-11-19T06:19:41;100658.56;;;-9.61;69.62
55347;BME280;41218;55.700;38.270;2023-11-19T06:24:41;100657.50;;;-9.54;69.24
55347;BME280;41218;55.700;38.270;2023-11-19T06:29:42;100657.44;;;-9.40;69.36
55347;BME280;41218;55.700;38.270;2023-11-19T06:34:43;100646.47;;;-9.39;69.46
55347;BME280;41218;55.700;38.270;2023-11-19T06:39:44;100654.63;;;-9.27;69.52
55347;BME280;41218;55.700;38.270;2023-11-19T06:44:44;100637.16;;;-9.30;69.29
55347;BME280;41218;55.700;38.270;2023-11-19T06:49:45;100649.19;;;-9.14;69.33
55347;BME280;41218;55.700;38.270;2023-11-19T06:54:47;100643.78;;;-9.07;69.23
55347;BME280;41218;55.700;38.270;2023-11-19T06:59:47;100648.25;;;-9.01;69.23
55347;BME280;41218;55.700;38.270;2023-11-19T07:04:48;100649.06;;;-8.94;69.13
55347;BME280;41218;55.700;38.270;2023-11-19T07:09:49;100651.22;;;-8.84;69.46
55347;BME280;41218;55.700;38.270;2023-11-19T07:14:50;100635.13;;;-8.84;69.62
55347;BME280;41218;55.700;38.270;2023-11-19T07:19:50;100642.63;;;-8.68;70.01
55347;BME280;41218;55.700;38.270;2023-11-19T07:24:51;100646.72;;;-8.65;69.72
55347;BME280;41218;55.700;38.270;2023-11-19T07:29:53;100655.59;;;-8.46;69.79
55347;BME280;41218;55.700;38.270;2023-11-19T07:34:53;100654.16;;;-8.30;69.69
55347;BME280;41218;55.700;38.270;2023-11-19T07:39:54;100643.97;;;-8.21;70.18
55347;BME280;41218;55.700;38.270;2023-11-19T07:44:54;100651.66;;;-8.07;69.95
55347;BME280;41218;55.700;38.270;2023-11-19T07:49:56;100656.47;;;-7.97;70.53
55347;BME280;41218;55.700;38.270;2023-11-19T07:54:57;100645.66;;;-7.90;70.08
55347;BME280;41218;55.700;38.270;2023-11-19T07:59:57;100666.34;;;-7.79;70.62
55347;BME280;41218;55.700;38.270;2023-11-19T08:04:58;100645.84;;;-7.73;70.00
55347;BME280;41218;55.700;38.270;2023-11-19T08:09:59;100647.19;;;-7.64;70.33
55347;BME280;41218;55.700;38.270;2023-11-19T08:15:00;100646.75;;;-7.49;70.46
55347;BME280;41218;55.700;38.270;2023-11-19T08:20:01;100629.88;;;-7.38;70.43
55347;BME280;41218;55.700;38.270;2023-11-19T08:25:01;100635.97;;;-7.31;70.45
55347;BME280;41218;55.700;38.270;2023-11-19T08:30:02;100635.41;;;-7.21;70.05
55347;BME280;41218;55.700;38.270;2023-11-19T08:35:03;100600.44;;;-7.33;70.03
55347;BME280;41218;55.700;38.270;2023-11-19T08:40:05;100621.41;;;-7.11;70.60
55347;BME280;41218;55.700;38.270;2023-11-19T08:45:09;100618.47;;;-6.98;70.88
55347;BME280;41218;55.700;38.270;2023-11-19T08:50:11;100618.13;;;-6.90;70.37
55347;BME280;41218;55.700;38.270;2023-11-19T08:55:12;100623.16;;;-6.81;70.33
55347;BME280;41218;55.700;38.270;2023-11-19T09:00:13;100602.03;;;-6.78;70.39
55347;BME280;41218;55.700;38.270;2023-11-19T09:05:15;100600.03;;;-6.71;70.55
55347;BME280;41218;55.700;38.270;2023-11-19T09:10:15;100600.59;;;-6.57;71.04
55347;BME280;41218;55.700;38.270;2023-11-19T09:15:16;100593.72;;;-6.53;70.52
55347;BME280;41218;55.700;38.270;2023-11-19T09:20:17;100577.22;;;-6.56;70.07
55347;BME280;41218;55.700;38.270;2023-11-19T09:25:17;100594.75;;;-6.42;70.58
55347;BME280;41218;55.700;38.270;2023-11-19T09:30:18;100595.69;;;-6.36;70.12
55347;BME280;41218;55.700;38.270;2023-11-19T09:35:18;100596.94;;;-6.27;70.52
55347;BME280;41218;55.700;38.270;2023-11-19T09:40:19;100588.13;;;-6.22;70.08
55347;BME280;41218;55.700;38.270;2023-11-19T09:45:21;100581.22;;;-6.18;70.06
55347;BME280;41218;55.700;38.270;2023-11-19T09:50:25;100561.00;;;-6.21;69.70
55347;BME280;41218;55.700;38.270;2023-11-19T09:55:26;100550.09;;;-6.14;70.02
55347;BME280;41218;55.700;38.270;2023-11-19T10:00:27;100550.44;;;-6.11;70.15
55347;BME280;41218;55.700;38.270;2023-11-19T10:05:27;100528.25;;;-6.18;69.75
55347;BME280;41218;55.700;38.270;2023-11-19T10:10:28;100542.47;;;-6.06;69.93
55347;BME280;41218;55.700;38.270;2023-11-19T10:15:36;100538.22;;;-6.01;70.35
55347;BME280;41218;55.700;38.270;2023-11-19T10:20:37;100534.00;;;-5.97;69.42
55347;BME280;41218;55.700;38.270;2023-11-19T10:25:37;100537.81;;;-5.93;69.77
55347;BME280;41218;55.700;38.270;2023-11-19T10:30:38;100520.69;;;-6.04;69.78
55347;BME280;41218;55.700;38.270;2023-11-19T10:35:57;100521.94;;;-5.95;69.80
55347;BME280;41218;55.700;38.270;2023-11-19T10:40:58;100514.63;;;-5.94;69.91
55347;BME280;41218;55.700;38.270;2023-11-19T10:46:10;100516.28;;;-5.93;69.48
55347;BME280;41218;55.700;38.270;2023-11-19T10:51:13;100501.97;;;-6.11;69.34
55347;BME280;41218;55.700;38.270;2023-11-19T10:56:24;100511.78;;;-6.05;69.45
55347;BME280;41218;55.700;38.270;2023-11-19T11:01:29;100510.00;;;-5.99;69.80
55347;BME280;41218;55.700;38.270;2023-11-19T11:06:34;100517.31;;;-5.94;69.78
55347;BME280;41218;55.700;38.270;2023-11-19T11:11:35;100513.28;;;-5.97;69.98
55347;BME280;41218;55.700;38.270;2023-11-19T11:16:37;100508.97;;;-5.98;69.25
55347;BME280;41218;55.700;38.270;2023-11-19T11:21:44;100523.63;;;-5.89;69.03
55347;BME280;41218;55.700;38.270;2023-11-19T11:27:16;100517.09;;;-5.93;69.17
55347;BME280;41218;55.700;38.270;2023-11-19T11:32:40;100521.44;;;-5.92;69.10
55347;BME280;41218;55.700;38.270;2023-11-19T11:37:47;100517.78;;;-5.86;69.28
55347;BME280;41218;55.700;38.270;2023-11-19T11:42:50;100524.53;;;-5.83;69.46
55347;BME280;41218;55.700;38.270;2023-11-19T11:57:58;100504.03;;;-5.84;68.68
55347;BME280;41218;55.700;38.270;2023-11-19T12:03:00;100496.31;;;-5.80;69.13
55347;BME280;41218;55.700;38.270;2023-11-19T12:08:02;100498.75;;;-5.79;68.66
55347;BME280;41218;55.700;38.270;2023-11-19T12:13:06;100494.41;;;-5.80;68.46
55347;BME280;41218;55.700;38.270;2023-11-19T12:18:09;100499.66;;;-5.73;68.69
55347;BME280;41218;55.700;38.270;2023-11-19T12:23:10;100499.16;;;-5.70;68.69
55347;BME280;41218;55.700;38.270;2023-11-19T12:28:14;100498.19;;;-5.64;68.86
55347;BME280;41218;55.700;38.270;2023-11-19T12:33:17;100487.13;;;-5.68;68.57
55347;BME280;41218;55.700;38.270;2023-11-19T12:38:22;100478.94;;;-5.73;68.48
55347;BME280;41218;55.700;38.270;2023-11-19T12:43:23;100476.56;;;-5.69;69.36
55347;BME280;41218;55.700;38.270;2023-11-19T12:48:23;100470.97;;;-5.68;68.35
55347;BME280;41218;55.700;38.270;2023-11-19T12:53:26;100448.41;;;-5.78;68.69
55347;BME280;41218;55.700;38.270;2023-11-19T12:58:35;100452.56;;;-5.71;68.03
55347;BME280;41218;55.700;38.270;2023-11-19T13:03:37;100460.41;;;-5.69;68.56
55347;BME280;41218;55.700;38.270;2023-11-19T13:08:40;100437.56;;;-5.84;68.65
55347;BME280;41218;55.700;38.270;2023-11-19T13:13:54;100441.97;;;-5.77;67.93
55347;BME280;41218;55.700;38.270;2023-11-19T13:18:55;100434.94;;;-5.78;68.59
55347;BME280;41218;55.700;38.270;2023-11-19T13:23:57;100439.53;;;-5.79;68.56
55347;BME280;41218;55.700;38.270;2023-11-19T13:28:58;100430.53;;;-5.85;68.90
55347;BME280;41218;55.700;38.270;2023-11-19T13:33:59;100441.66;;;-5.81;68.19
55347;BME280;41218;55.700;38.270;2023-11-19T13:39:00;100440.25;;;-5.84;68.81
55347;BME280;41218;55.700;38.270;2023-11-19T13:44:01;100434.53;;;-5.87;68.50
55347;BME280;41218;55.700;38.270;2023-11-19T13:49:02;100438.16;;;-5.81;68.46
55347;BME280;41218;55.700;38.270;2023-11-19T13:54:03;100444.66;;;-5.77;68.47
55347;BME280;41218;55.700;38.270;2023-11-19T13:59:04;100446.53;;;-5.78;68.73
55347;BME280;41218;55.700;38.270;2023-11-19T14:04:05;100443.84;;;-5.78;69.02
55347;BME280;41218;55.700;38.270;2023-11-19T14:09:09;100431.44;;;-5.79;68.72
55347;BME280;41218;55.700;38.270;2023-11-19T14:14:10;100437.88;;;-5.80;68.78
55347;BME280;41218;55.700;38.270;2023-11-19T14:19:10;100444.97;;;-5.74;69.45
55347;BME280;41218;55.700;38.270;2023-11-19T14:24:11;100440.44;;;-5.73;68.91
55347;BME280;41218;55.700;38.270;2023-11-19T14:29:11;100440.72;;;-5.70;68.97
55347;BME280;41218;55.700;38.270;2023-11-19T14:34:12;100435.03;;;-5.73;69.19
55347;BME280;41218;55.700;38.270;2023-11-19T14:39:13;100442.94;;;-5.67;68.73
55347;BME280;41218;55.700;38.270;2023-11-19T14:44:13;100436.25;;;-5.64;68.50
55347;BME280;41218;55.700;38.270;2023-11-19T14:49:14;100420.75;;;-5.74;69.06
55347;BME280;41218;55.700;38.270;2023-11-19T14:54:15;100421.72;;;-5.80;69.36
55347;BME280;41218;55.700;38.270;2023-11-19T14:59:16;100430.56;;;-5.68;68.80
55347;BME280;41218;55.700;38.270;2023-11-19T15:04:16;100413.41;;;-5.78;69.02
55347;BME280;41218;55.700;38.270;2023-11-19T15:09:18;100428.34;;;-5.71;68.96
55347;BME280;41218;55.700;38.270;2023-11-19T15:14:18;100406.97;;;-5.77;68.88
55347;BME280;41218;55.700;38.270;2023-11-19T15:19:20;100406.41;;;-5.79;68.67
55347;BME280;41218;55.700;38.270;2023-11-19T15:24:20;100418.31;;;-5.75;68.61
55347;BME280;41218;55.700;38.270;2023-11-19T15:29:21;100406.13;;;-5.78;68.51
55347;BME280;41218;55.700;38.270;2023-11-19T15:34:21;100388.38;;;-5.79;68.35
55347;BME280;41218;55.700;38.270;2023-11-19T15:39:22;100382.75;;;-5.77;68.42
55347;BME280;41218;55.700;38.270;2023-11-19T15:44:24;100387.03;;;-5.76;68.73
55347;BME280;41218;55.700;38.270;2023-11-19T15:49:24;100361.34;;;-5.84;68.78
55347;BME280;41218;55.700;38.270;2023-11-19T15:54:25;100361.09;;;-5.82;68.39
55347;BME280;41218;55.700;38.270;2023-11-19T15:59:25;100373.53;;;-5.81;68.33
55347;BME280;41218;55.700;38.270;2023-11-19T16:04:26;100351.19;;;-5.99;68.75
55347;BME280;41218;55.700;38.270;2023-11-19T16:09:27;100368.38;;;-5.83;68.45
55347;BME280;41218;55.700;38.270;2023-11-19T16:14:29;100353.13;;;-5.94;68.16
55347;BME280;41218;55.700;38.270;2023-11-19T16:19:30;100365.84;;;-5.90;68.43
55347;BME280;41218;55.700;38.270;2023-11-19T16:24:30;100364.78;;;-5.89;68.06
55347;BME280;41218;55.700;38.270;2023-11-19T16:29:31;100368.78;;;-5.91;68.33
55347;BME280;41218;55.700;38.270;2023-11-19T16:34:32;100358.50;;;-5.94;68.41
55347;BME280;41218;55.700;38.270;2023-11-19T16:39:42;100353.00;;;-6.05;68.21
55347;BME280;41218;55.700;38.270;2023-11-19T16:44:43;100368.09;;;-6.03;68.77
55347;BME280;41218;55.700;38.270;2023-11-19T16:49:44;100363.59;;;-6.15;68.39
55347;BME280;41218;55.700;38.270;2023-11-19T16:54:44;100352.44;;;-6.23;67.87
55347;BME280;41218;55.700;38.270;2023-11-19T16:59:45;100348.81;;;-6.29;68.49
55347;BME280;41218;55.700;38.270;2023-11-19T17:04:46;100335.53;;;-6.36;67.88
55347;BME280;41218;55.700;38.270;2023-11-19T17:09:47;100330.91;;;-6.40;68.40
55347;BME280;41218;55.700;38.270;2023-11-19T17:14:48;100337.56;;;-6.43;67.83
55347;BME280;41218;55.700;38.270;2023-11-19T17:19:48;100340.97;;;-6.48;68.34
55347;BME280;41218;55.700;38.270;2023-11-19T17:24:49;100340.97;;;-6.48;68.47
55347;BME280;41218;55.700;38.270;2023-11-19T17:29:50;100332.50;;;-6.56;68.19
55347;BME280;41218;55.700;38.270;2023-11-19T17:34:51;100327.84;;;-6.61;68.30
55347;BME280;41218;55.700;38.270;2023-11-19T17:39:51;100318.03;;;-6.67;68.12
55347;BME280;41218;55.700;38.270;2023-11-19T17:44:52;100324.25;;;-6.67;68.02
55347;BME280;41218;55.700;38.270;2023-11-19T17:49:53;100324.97;;;-6.71;68.42
55347;BME280;41218;55.700;38.270;2023-11-19T17:54:54;100339.47;;;-6.72;68.20
55347;BME280;41218;55.700;38.270;2023-11-19T17:59:55;100322.66;;;-6.79;68.29
55347;BME280;41218;55.700;38.270;2023-11-19T18:04:55;100329.47;;;-6.77;68.44
55347;BME280;41218;55.700;38.270;2023-11-19T18:09:57;100325.94;;;-6.77;68.19
55347;BME280;41218;55.700;38.270;2023-11-19T18:15:00;100326.50;;;-6.75;68.07
55347;BME280;41218;55.700;38.270;2023-11-19T18:20:01;100318.25;;;-6.86;68.37
55347;BME280;41218;55.700;38.270;2023-11-19T18:25:01;100327.00;;;-6.78;68.44
55347;BME280;41218;55.700;38.270;2023-11-19T18:30:02;100314.03;;;-6.81;68.25
55347;BME280;41218;55.700;38.270;2023-11-19T18:35:03;100313.22;;;-6.82;68.32
55347;BME280;41218;55.700;38.270;2023-11-19T18:40:06;100306.22;;;-6.83;68.60
55347;BME280;41218;55.700;38.270;2023-11-19T18:45:09;100331.41;;;-6.72;68.50
55347;BME280;41218;55.700;38.270;2023-11-19T18:50:09;100333.38;;;-6.68;68.27
55347;BME280;41218;55.700;38.270;2023-11-19T18:55:11;100336.56;;;-6.71;68.64
55347;BME280;41218;55.700;38.270;2023-11-19T19:00:12;100329.47;;;-6.77;67.92
55347;BME280;41218;55.700;38.270;2023-11-19T19:05:14;100324.06;;;-6.77;68.46
55347;BME280;41218;55.700;38.270;2023-11-19T19:10:16;100329.53;;;-6.72;68.59
55347;BME280;41218;55.700;38.270;2023-11-19T19:15:17;100320.09;;;-6.74;68.80
55347;BME280;41218;55.700;38.270;2023-11-19T19:20:18;100326.94;;;-6.67;68.56
55347;BME280;41218;55.700;38.270;2023-11-19T19:25:19;100328.81;;;-6.67;68.62
55347;BME280;41218;55.700;38.270;2023-11-19T19:30:19;100327.25;;;-6.63;68.59
55347;BME280;41218;55.700;38.270;2023-11-19T19:35:21;100333.78;;;-6.59;68.71
55347;BME280;41218;55.700;38.270;2023-11-19T19:40:25;100332.00;;;-6.53;68.64
55347;BME280;41218;55.700;38.270;2023-11-19T19:45:25;100325.09;;;-6.49;68.85
55347;BME280;41218;55.700;38.270;2023-11-19T19:50:26;100321.59;;;-6.50;69.08
55347;BME280;41218;55.700;38.270;2023-11-19T19:55:27;100328.44;;;-6.42;68.94
55347;BME280;41218;55.700;38.270;2023-11-19T20:00:27;100334.16;;;-6.38;69.20
55347;BME280;41218;55.700;38.270;2023-11-19T20:05:28;100314.91;;;-6.47;69.15
55347;BME280;41218;55.700;38.270;2023-11-19T20:10:29;100328.84;;;-6.33;69.25
55347;BME280;41218;55.700;38.270;2023-11-19T20:15:31;100330.97;;;-6.35;69.27
55347;BME280;41218;55.700;38.270;2023-11-19T20:20:31;100319.16;;;-6.34;69.13
55347;BME280;41218;55.700;38.270;2023-11-19T20:25:33;100329.41;;;-6.31;69.01
55347;BME280;41218;55.700;38.270;2023-11-19T20:30:34;100336.69;;;-6.32;68.65
55347;BME280;41218;55.700;38.270;2023-11-19T20:35:35;100339.38;;;-6.32;68.97
55347;BME280;41218;55.700;38.270;2023-11-19T20:40:37;100329.81;;;-6.39;68.80
55347;BME280;41218;55.700;38.270;2023-11-19T20:45:39;100331.78;;;-6.35;69.15
55347;BME280;41218;55.700;38.270;2023-11-19T20:50:39;100314.25;;;-6.37;68.90
55347;BME280;41218;55.700;38.270;2023-11-19T20:55:41;100324.03;;;-6.31;69.04
55347;BME280;41218;55.700;38.270;2023-11-19T21:00:45;100301.38;;;-6.35;68.91
55347;BME280;41218;55.700;38.270;2023-11-19T21:05:46;100301.47;;;-6.30;69.00
55347;BME280;41218;55.700;38.270;2023-11-19T21:10:54;100284.19;;;-6.34;68.80
55347;BME280;41218;55.700;38.270;2023-11-19T21:15:54;100272.59;;;-6.35;69.31
55347;BME280;41218;55.700;38.270;2023-11-19T21:20:55;100285.81;;;-6.33;68.50
55347;BME280;41218;55.700;38.270;2023-11-19T21:25:59;100292.34;;;-6.29;68.67
55347;BME280;41218;55.700;38.270;2023-11-19T21:31:00;100286.72;;;-6.28;69.13
55347;BME280;41218;55.700;38.270;2023-11-19T21:36:01;100269.59;;;-6.38;68.88
55347;BME280;41218;55.700;38.270;2023-11-19T21:41:01;100277.50;;;-6.32;68.87
55347;BME280;41218;55.700;38.270;2023-11-19T21:46:02;100269.44;;;-6.32;68.64
55347;BME280;41218;55.700;38.270;2023-11-19T21:51:04;100268.84;;;-6.34;68.17
55347;BME280;41218;55.700;38.270;2023-11-19T21:56:04;100275.56;;;-6.36;68.72
55347;BME280;41218;55.700;38.270;2023-11-19T22:01:05;100252.56;;;-6.44;68.47
55347;BME280;41218;55.700;38.270;2023-11-19T22:06:07;100239.53;;;-6.52;68.77
55347;BME280;41218;55.700;38.270;2023-11-19T22:11:08;100245.94;;;-6.53;68.53
55347;BME280;41218;55.700;38.270;2023-11-19T22:16:08;100242.84;;;-6.45;68.29
55347;BME280;41218;55.700;38.270;2023-11-19T22:21:09;100238.31;;;-6.45;68.68
55347;BME280;41218;55.700;38.270;2023-11-19T22:26:09;100241.22;;;-6.46;68.34
55347;BME280;41218;55.700;38.270;2023-11-19T22:31:10;100233.97;;;-6.46;68.54
55347;BME280;41218;55.700;38.270;2023-11-19T22:36:11;100224.28;;;-6.47;68.55
55347;BME280;41218;55.700;38.270;2023-11-19T22:41:11;100229.41;;;-6.45;68.55
55347;BME280;41218;55.700;38.270;2023-11-19T22:46:12;100212.69;;;-6.47;68.55
55347;BME280;41218;55.700;38.270;2023-11-19T22:51:13;100215.94;;;-6.45;68.53
55347;BME280;41218;55.700;38.270;2023-11-19T22:56:14;100221.59;;;-6.47;68.37
55347;BME280;41218;55.700;38.270;2023-11-19T23:01:19;100213.53;;;-6.47;68.15
55347;BME280;41218;55.700;38.270;2023-11-19T23:06:20;100216.53;;;-6.43;68.68
55347;BME280;41218;55.700;38.270;2023-11-19T23:11:20;100215.94;;;-6.45;68.46
55347;BME280;41218;55.700;38.270;2023-11-19T23:16:21;100216.84;;;-6.39;68.60
55347;BME280;41218;55.700;38.270;2023-11-19T23:21:23;100213.03;;;-6.43;68.53
55347;BME280;41218;55.700;38.270;2023-11-19T23:26:24;100216.53;;;-6.43;68.55
55347;BME280;41218;55.700;38.270;2023-11-19T23:31:24;100210.84;;;-6.47;68.15
55347;BME280;41218;55.700;38.270;2023-11-19T23:36:25;100226.81;;;-6.40;68.61
55347;BME280;41218;55.700;38.270;2023-11-19T23:41:25;100219.72;;;-6.46;68.46
55347;BME280;41218;55.700;38.270;2023-11-19T23:46:26;100207.31;;;-6.47;68.50
55347;BME280;41218;55.700;38.270;2023-11-19T23:51:26;100206.28;;;-6.46;68.60
55347;BME280;41218;55.700;38.270;2023-11-19T23:56:27;100210.34;;;-6.43;68.61
